SWR179H LIBR-LSZH
Flight info
| Callsign | SWR179H |
|---|---|
| Flight time | 1h 37m |
| Altitude | 34000 |
| Route | ENOXA DCT AIOSA DCT PEVAL DCT MOBDO DCT EKPEB DCT SOTOV/N0444F300 P66 KPT L856 NEGRA |
| Aircraft | A321/M-SDE3FGHIRWY/LB1 |
Departure
| Time | 2026-05-08 00:17 |
|---|---|
| Airport | Brindisi Airport (LIBR) |
Arrival
| Time | 2026-05-08 01:54 |
|---|---|
| Airport | Zürich Airport (LSZH) |
| Time | Latitude | Longitude | Altitude | Speed | Heading |
|---|---|---|---|---|---|
| 2026-05-07 23:32 | 40.65567 | 17.93684 | 43 ft | 0 kts | 360° |
| 2026-05-07 23:58 | 40.65556 | 17.93688 | 43 ft | 2 kts | 315° |
| 2026-05-07 23:58 | 40.65545 | 17.93702 | 43 ft | 2 kts | 324° |
| 2026-05-07 23:59 | 40.65533 | 17.93713 | 43 ft | 2 kts | 322° |
| 2026-05-07 23:59 | 40.65521 | 17.93726 | 43 ft | 2 kts | 322° |
| 2026-05-07 23:59 | 40.65509 | 17.93737 | 43 ft | 2 kts | 322° |
| 2026-05-07 23:59 | 40.65497 | 17.93750 | 43 ft | 2 kts | 323° |
| 2026-05-08 00:00 | 40.65483 | 17.93757 | 43 ft | 2 kts | 356° |
| 2026-05-08 00:00 | 40.65470 | 17.93756 | 43 ft | 0 kts | 16° |
| 2026-05-08 00:00 | 40.65464 | 17.93753 | 43 ft | 0 kts | 20° |
| 2026-05-08 00:03 | 40.65472 | 17.93757 | 43 ft | 1 kts | 20° |
| 2026-05-08 00:04 | 40.65479 | 17.93762 | 43 ft | 1 kts | 34° |
| 2026-05-08 00:04 | 40.65493 | 17.93780 | 42 ft | 2 kts | 49° |
| 2026-05-08 00:04 | 40.65494 | 17.93782 | 42 ft | 0 kts | 52° |
| 2026-05-08 00:04 | 40.65499 | 17.93790 | 42 ft | 0 kts | 52° |
| 2026-05-08 00:05 | 40.65500 | 17.93791 | 42 ft | 0 kts | 52° |
| 2026-05-08 00:05 | 40.65501 | 17.93793 | 42 ft | 1 kts | 52° |
| 2026-05-08 00:05 | 40.65513 | 17.93813 | 42 ft | 4 kts | 52° |
| 2026-05-08 00:05 | 40.65544 | 17.93866 | 41 ft | 9 kts | 52° |
| 2026-05-08 00:06 | 40.65592 | 17.93947 | 39 ft | 12 kts | 52° |
| 2026-05-08 00:06 | 40.65644 | 17.94036 | 37 ft | 11 kts | 52° |
| 2026-05-08 00:06 | 40.65689 | 17.94113 | 35 ft | 10 kts | 52° |
| 2026-05-08 00:06 | 40.65738 | 17.94198 | 35 ft | 12 kts | 53° |
| 2026-05-08 00:07 | 40.65791 | 17.94291 | 33 ft | 13 kts | 53° |
| 2026-05-08 00:07 | 40.65844 | 17.94384 | 31 ft | 12 kts | 51° |
| 2026-05-08 00:07 | 40.65904 | 17.94484 | 30 ft | 16 kts | 52° |
| 2026-05-08 00:07 | 40.65981 | 17.94617 | 26 ft | 17 kts | 53° |
| 2026-05-08 00:08 | 40.66032 | 17.94701 | 25 ft | 10 kts | 35° |
| 2026-05-08 00:08 | 40.66085 | 17.94681 | 25 ft | 9 kts | 318° |
| 2026-05-08 00:08 | 40.66106 | 17.94656 | 25 ft | 4 kts | 318° |
| 2026-05-08 00:08 | 40.66139 | 17.94617 | 25 ft | 8 kts | 318° |
| 2026-05-08 00:09 | 40.66170 | 17.94577 | 25 ft | 6 kts | 316° |
| 2026-05-08 00:09 | 40.66213 | 17.94524 | 24 ft | 9 kts | 316° |
| 2026-05-08 00:09 | 40.66270 | 17.94455 | 24 ft | 12 kts | 318° |
| 2026-05-08 00:09 | 40.66346 | 17.94362 | 22 ft | 16 kts | 317° |
| 2026-05-08 00:10 | 40.66437 | 17.94251 | 22 ft | 18 kts | 317° |
| 2026-05-08 00:10 | 40.66530 | 17.94138 | 22 ft | 17 kts | 317° |
| 2026-05-08 00:10 | 40.66616 | 17.94033 | 24 ft | 16 kts | 317° |
| 2026-05-08 00:10 | 40.66695 | 17.93937 | 25 ft | 15 kts | 316° |
| 2026-05-08 00:11 | 40.66775 | 17.93838 | 25 ft | 15 kts | 317° |
| 2026-05-08 00:11 | 40.66851 | 17.93746 | 26 ft | 14 kts | 317° |
| 2026-05-08 00:11 | 40.66923 | 17.93658 | 27 ft | 14 kts | 317° |
| 2026-05-08 00:11 | 40.66998 | 17.93567 | 27 ft | 16 kts | 317° |
| 2026-05-08 00:12 | 40.67080 | 17.93465 | 28 ft | 17 kts | 317° |
| 2026-05-08 00:12 | 40.67170 | 17.93355 | 28 ft | 18 kts | 317° |
| 2026-05-08 00:12 | 40.67265 | 17.93238 | 28 ft | 19 kts | 317° |
| 2026-05-08 00:12 | 40.67348 | 17.93107 | 28 ft | 17 kts | 261° |
| 2026-05-08 00:13 | 40.67335 | 17.93075 | 28 ft | 0 kts | 231° |
| 2026-05-08 00:14 | 40.67335 | 17.93074 | 28 ft | 1 kts | 231° |
| 2026-05-08 00:14 | 40.67266 | 17.92978 | 28 ft | 19 kts | 213° |
| 2026-05-08 00:15 | 40.67239 | 17.92976 | 28 ft | 0 kts | 135° |
| 2026-05-08 00:16 | 40.67238 | 17.92978 | 28 ft | 3 kts | 135° |
| 2026-05-08 00:16 | 40.67018 | 17.93249 | 28 ft | 87 kts | 137° |
| 2026-05-08 00:17 | 40.66377 | 17.94025 | 43 ft | 158 kts | 137° |
| 2026-05-08 00:17 | 40.65528 | 17.95058 | 730 ft | 168 kts | 137° |
| 2026-05-08 00:17 | 40.64682 | 17.96025 | 1721 ft | 164 kts | 139° |
| 2026-05-08 00:17 | 40.63830 | 17.97018 | 2535 ft | 173 kts | 139° |
| 2026-05-08 00:18 | 40.62931 | 17.98103 | 3051 ft | 182 kts | 139° |
| 2026-05-08 00:18 | 40.61947 | 17.99280 | 3392 ft | 198 kts | 139° |
| 2026-05-08 00:18 | 40.60891 | 18.00565 | 3660 ft | 221 kts | 134° |
| 2026-05-08 00:18 | 40.60122 | 18.02416 | 4043 ft | 243 kts | 106° |
| 2026-05-08 00:19 | 40.60187 | 18.04704 | 4496 ft | 266 kts | 74° |
| 2026-05-08 00:19 | 40.61251 | 18.06720 | 5144 ft | 282 kts | 40° |
| 2026-05-08 00:19 | 40.63068 | 18.07715 | 5848 ft | 291 kts | 6° |
| 2026-05-08 00:19 | 40.65038 | 18.07307 | 6524 ft | 294 kts | 334° |
| 2026-05-08 00:20 | 40.66775 | 18.05898 | 7237 ft | 294 kts | 321° |
| 2026-05-08 00:20 | 40.68400 | 18.04269 | 7924 ft | 297 kts | 320° |
| 2026-05-08 00:20 | 40.69871 | 18.02379 | 8600 ft | 296 kts | 304° |
| 2026-05-08 00:20 | 40.70871 | 18.00050 | 9276 ft | 295 kts | 291° |
| 2026-05-08 00:21 | 40.71664 | 17.97560 | 9961 ft | 296 kts | 289° |
| 2026-05-08 00:21 | 40.72444 | 17.95046 | 10550 ft | 301 kts | 289° |
| 2026-05-08 00:21 | 40.73323 | 17.92414 | 10839 ft | 319 kts | 297° |
| 2026-05-08 00:21 | 40.74801 | 17.90101 | 11094 ft | 341 kts | 320° |
| 2026-05-08 00:22 | 40.76894 | 17.88567 | 11399 ft | 357 kts | 336° |
| 2026-05-08 00:22 | 40.79279 | 17.87437 | 11956 ft | 362 kts | 339° |
| 2026-05-08 00:22 | 40.81667 | 17.86374 | 12567 ft | 364 kts | 339° |
| 2026-05-08 00:22 | 40.84049 | 17.85274 | 13169 ft | 366 kts | 338° |
| 2026-05-08 00:23 | 40.86437 | 17.84122 | 13754 ft | 367 kts | 337° |
| 2026-05-08 00:23 | 40.88824 | 17.82937 | 14331 ft | 369 kts | 336° |
| 2026-05-08 00:23 | 40.91222 | 17.81727 | 14901 ft | 371 kts | 336° |
| 2026-05-08 00:23 | 40.93623 | 17.80507 | 15449 ft | 373 kts | 335° |
| 2026-05-08 00:24 | 40.96051 | 17.79268 | 15987 ft | 375 kts | 335° |
| 2026-05-08 00:24 | 40.98457 | 17.78038 | 16505 ft | 377 kts | 335° |
| 2026-05-08 00:24 | 41.00920 | 17.76778 | 17019 ft | 379 kts | 335° |
| 2026-05-08 00:24 | 41.03389 | 17.75513 | 17520 ft | 381 kts | 335° |
| 2026-05-08 00:25 | 41.05841 | 17.74256 | 18002 ft | 383 kts | 335° |
| 2026-05-08 00:25 | 41.08356 | 17.72967 | 18480 ft | 385 kts | 335° |
| 2026-05-08 00:25 | 41.10881 | 17.71670 | 18942 ft | 387 kts | 335° |
| 2026-05-08 00:25 | 41.13385 | 17.70384 | 19380 ft | 390 kts | 335° |
| 2026-05-08 00:26 | 41.15913 | 17.69082 | 19819 ft | 392 kts | 335° |
| 2026-05-08 00:26 | 41.18451 | 17.67775 | 20254 ft | 394 kts | 334° |
| 2026-05-08 00:26 | 41.21008 | 17.66413 | 20684 ft | 395 kts | 333° |
| 2026-05-08 00:26 | 41.23512 | 17.64992 | 21104 ft | 396 kts | 332° |
| 2026-05-08 00:27 | 41.26058 | 17.63528 | 21518 ft | 398 kts | 332° |
| 2026-05-08 00:27 | 41.28579 | 17.62078 | 21920 ft | 400 kts | 332° |
| 2026-05-08 00:27 | 41.31125 | 17.60614 | 22318 ft | 402 kts | 332° |
| 2026-05-08 00:27 | 41.33712 | 17.59126 | 22713 ft | 404 kts | 332° |
| 2026-05-08 00:28 | 41.36266 | 17.57658 | 23092 ft | 405 kts | 332° |
| 2026-05-08 00:28 | 41.38845 | 17.56173 | 23462 ft | 407 kts | 332° |
| 2026-05-08 00:28 | 41.41468 | 17.54664 | 23832 ft | 409 kts | 332° |
| 2026-05-08 00:28 | 41.44066 | 17.53167 | 24190 ft | 411 kts | 332° |
| 2026-05-08 00:29 | 41.46661 | 17.51673 | 24543 ft | 412 kts | 332° |
| 2026-05-08 00:29 | 41.49306 | 17.50149 | 24903 ft | 413 kts | 332° |
| 2026-05-08 00:29 | 41.51931 | 17.48634 | 25249 ft | 415 kts | 332° |
| 2026-05-08 00:29 | 41.54566 | 17.47112 | 25589 ft | 416 kts | 332° |
| 2026-05-08 00:30 | 41.57233 | 17.45569 | 25919 ft | 417 kts | 332° |
| 2026-05-08 00:30 | 41.59884 | 17.44035 | 26241 ft | 419 kts | 331° |
| 2026-05-08 00:30 | 41.62571 | 17.42478 | 26559 ft | 420 kts | 331° |
| 2026-05-08 00:30 | 41.65240 | 17.40930 | 26875 ft | 421 kts | 331° |
| 2026-05-08 00:31 | 41.67973 | 17.39344 | 27183 ft | 422 kts | 331° |
| 2026-05-08 00:31 | 41.70626 | 17.37803 | 27473 ft | 423 kts | 331° |
| 2026-05-08 00:31 | 41.73342 | 17.36224 | 27762 ft | 425 kts | 331° |
| 2026-05-08 00:31 | 41.76056 | 17.34645 | 28040 ft | 426 kts | 330° |
| 2026-05-08 00:32 | 41.78763 | 17.33070 | 28341 ft | 427 kts | 330° |
| 2026-05-08 00:32 | 41.81473 | 17.31490 | 28605 ft | 428 kts | 330° |
| 2026-05-08 00:32 | 41.84216 | 17.29873 | 28758 ft | 433 kts | 332° |
| 2026-05-08 00:32 | 41.86983 | 17.28254 | 28888 ft | 438 kts | 332° |
| 2026-05-08 00:33 | 41.89718 | 17.26524 | 29139 ft | 437 kts | 328° |
| 2026-05-08 00:33 | 41.92371 | 17.24547 | 29508 ft | 433 kts | 324° |
| 2026-05-08 00:33 | 41.94870 | 17.22377 | 29897 ft | 428 kts | 320° |
| 2026-05-08 00:33 | 41.97236 | 17.20006 | 30274 ft | 423 kts | 316° |
| 2026-05-08 00:34 | 41.99500 | 17.17552 | 30609 ft | 422 kts | 315° |
| 2026-05-08 00:34 | 42.01771 | 17.15049 | 30912 ft | 421 kts | 315° |
| 2026-05-08 00:34 | 42.04026 | 17.12555 | 31242 ft | 420 kts | 315° |
| 2026-05-08 00:34 | 42.06279 | 17.10065 | 31558 ft | 419 kts | 315° |
| 2026-05-08 00:35 | 42.08499 | 17.07611 | 31851 ft | 418 kts | 314° |
| 2026-05-08 00:35 | 42.10765 | 17.05107 | 32129 ft | 418 kts | 314° |
| 2026-05-08 00:35 | 42.13010 | 17.02622 | 32353 ft | 419 kts | 314° |
| 2026-05-08 00:35 | 42.15224 | 17.00169 | 32549 ft | 420 kts | 314° |
| 2026-05-08 00:36 | 42.17503 | 16.97642 | 32748 ft | 421 kts | 314° |
| 2026-05-08 00:36 | 42.19754 | 16.95146 | 32946 ft | 422 kts | 314° |
| 2026-05-08 00:36 | 42.22018 | 16.92633 | 33128 ft | 424 kts | 314° |
| 2026-05-08 00:36 | 42.24280 | 16.90120 | 33313 ft | 425 kts | 313° |
| 2026-05-08 00:37 | 42.26577 | 16.87567 | 33501 ft | 425 kts | 313° |
| 2026-05-08 00:37 | 42.28849 | 16.85038 | 33679 ft | 426 kts | 313° |
| 2026-05-08 00:37 | 42.31119 | 16.82510 | 33859 ft | 427 kts | 313° |
| 2026-05-08 00:38 | 42.35717 | 16.77381 | 34001 ft | 429 kts | 313° |
| 2026-05-08 00:38 | 42.40316 | 16.72238 | 34022 ft | 429 kts | 313° |
| 2026-05-08 00:39 | 42.44888 | 16.67119 | 34041 ft | 429 kts | 313° |
| 2026-05-08 00:39 | 42.49507 | 16.61935 | 34050 ft | 430 kts | 313° |
| 2026-05-08 00:40 | 42.54120 | 16.56744 | 34057 ft | 437 kts | 313° |
| 2026-05-08 00:40 | 42.58843 | 16.51419 | 34058 ft | 445 kts | 313° |
| 2026-05-08 00:41 | 42.63636 | 16.46009 | 34059 ft | 452 kts | 313° |
| 2026-05-08 00:41 | 42.68467 | 16.40548 | 34058 ft | 454 kts | 313° |
| 2026-05-08 00:42 | 42.73286 | 16.35090 | 34058 ft | 454 kts | 313° |
| 2026-05-08 00:42 | 42.78114 | 16.29609 | 34059 ft | 452 kts | 313° |
| 2026-05-08 00:43 | 42.82915 | 16.24147 | 34058 ft | 452 kts | 313° |
| 2026-05-08 00:43 | 42.87727 | 16.18658 | 34058 ft | 452 kts | 313° |
| 2026-05-08 00:44 | 42.92559 | 16.13134 | 34058 ft | 452 kts | 313° |
| 2026-05-08 00:44 | 42.97336 | 16.07664 | 34058 ft | 452 kts | 313° |
| 2026-05-08 00:45 | 43.02158 | 16.02130 | 34058 ft | 451 kts | 313° |
| 2026-05-08 00:45 | 43.06945 | 15.96623 | 34057 ft | 452 kts | 313° |
| 2026-05-08 00:46 | 43.11745 | 15.91090 | 34057 ft | 453 kts | 313° |
| 2026-05-08 00:46 | 43.16553 | 15.85535 | 34058 ft | 452 kts | 313° |
| 2026-05-08 00:47 | 43.21323 | 15.80015 | 34058 ft | 452 kts | 313° |
| 2026-05-08 00:47 | 43.26109 | 15.74464 | 34058 ft | 452 kts | 313° |
| 2026-05-08 00:48 | 43.30918 | 15.68874 | 34058 ft | 451 kts | 313° |
| 2026-05-08 00:48 | 43.35683 | 15.63323 | 34058 ft | 451 kts | 313° |
| 2026-05-08 00:49 | 43.40451 | 15.57758 | 34058 ft | 451 kts | 313° |
| 2026-05-08 00:49 | 43.45219 | 15.52178 | 34058 ft | 451 kts | 313° |
| 2026-05-08 00:50 | 43.49984 | 15.46592 | 34058 ft | 451 kts | 313° |
| 2026-05-08 00:50 | 43.54740 | 15.41004 | 34058 ft | 450 kts | 313° |
| 2026-05-08 00:51 | 43.59494 | 15.35405 | 34058 ft | 450 kts | 313° |
| 2026-05-08 00:51 | 43.64250 | 15.29793 | 34058 ft | 450 kts | 313° |
| 2026-05-08 00:52 | 43.68999 | 15.24177 | 34058 ft | 450 kts | 313° |
| 2026-05-08 00:52 | 43.73721 | 15.18581 | 34058 ft | 450 kts | 313° |
| 2026-05-08 00:53 | 43.78467 | 15.12944 | 34058 ft | 450 kts | 313° |
| 2026-05-08 00:53 | 43.83172 | 15.07343 | 34058 ft | 450 kts | 313° |
| 2026-05-08 00:54 | 43.87922 | 15.01677 | 34058 ft | 449 kts | 313° |
| 2026-05-08 00:54 | 43.92614 | 14.96067 | 34058 ft | 449 kts | 313° |
| 2026-05-08 00:55 | 43.97325 | 14.90425 | 34058 ft | 448 kts | 312° |
| 2026-05-08 00:55 | 44.02042 | 14.84761 | 34060 ft | 445 kts | 313° |
| 2026-05-08 00:56 | 44.06695 | 14.79164 | 34058 ft | 443 kts | 312° |
| 2026-05-08 00:56 | 44.11411 | 14.73476 | 34057 ft | 442 kts | 312° |
| 2026-05-08 00:57 | 44.16053 | 14.67864 | 34058 ft | 443 kts | 312° |
| 2026-05-08 00:57 | 44.20664 | 14.62280 | 34058 ft | 443 kts | 312° |
| 2026-05-08 00:58 | 44.25301 | 14.56652 | 34058 ft | 443 kts | 312° |
| 2026-05-08 00:58 | 44.29943 | 14.51004 | 34058 ft | 443 kts | 312° |
| 2026-05-08 00:59 | 44.34608 | 14.45318 | 34058 ft | 441 kts | 312° |
| 2026-05-08 00:59 | 44.39232 | 14.39670 | 34058 ft | 441 kts | 312° |
| 2026-05-08 01:00 | 44.43881 | 14.33976 | 34060 ft | 441 kts | 311° |
| 2026-05-08 01:00 | 44.48521 | 14.28281 | 34058 ft | 441 kts | 311° |
| 2026-05-08 01:01 | 44.53141 | 14.22600 | 34058 ft | 441 kts | 311° |
| 2026-05-08 01:01 | 44.57738 | 14.16933 | 34058 ft | 441 kts | 311° |
| 2026-05-08 01:02 | 44.62345 | 14.11245 | 34058 ft | 440 kts | 311° |
| 2026-05-08 01:02 | 44.66925 | 14.05575 | 34058 ft | 440 kts | 311° |
| 2026-05-08 01:03 | 44.71499 | 13.99901 | 34058 ft | 440 kts | 311° |
| 2026-05-08 01:03 | 44.76088 | 13.94192 | 34058 ft | 440 kts | 311° |
| 2026-05-08 01:04 | 44.80643 | 13.88518 | 34058 ft | 440 kts | 311° |
| 2026-05-08 01:04 | 44.85222 | 13.82800 | 34058 ft | 440 kts | 311° |
| 2026-05-08 01:05 | 44.89769 | 13.77109 | 34058 ft | 439 kts | 311° |
| 2026-05-08 01:05 | 44.94335 | 13.71382 | 34058 ft | 439 kts | 311° |
| 2026-05-08 01:06 | 44.98866 | 13.65685 | 34058 ft | 439 kts | 311° |
| 2026-05-08 01:06 | 45.03410 | 13.59962 | 34061 ft | 439 kts | 311° |
| 2026-05-08 01:07 | 45.07970 | 13.54202 | 34067 ft | 439 kts | 311° |
| 2026-05-08 01:07 | 45.12503 | 13.48466 | 34074 ft | 439 kts | 311° |
| 2026-05-08 01:08 | 45.17030 | 13.42727 | 34080 ft | 439 kts | 311° |
| 2026-05-08 01:08 | 45.21566 | 13.36963 | 34083 ft | 438 kts | 311° |
| 2026-05-08 01:09 | 45.26107 | 13.31181 | 34085 ft | 438 kts | 310° |
| 2026-05-08 01:09 | 45.30613 | 13.25428 | 34084 ft | 438 kts | 310° |
| 2026-05-08 01:10 | 45.35169 | 13.19668 | 34084 ft | 438 kts | 311° |
| 2026-05-08 01:10 | 45.39712 | 13.13956 | 34084 ft | 438 kts | 311° |
| 2026-05-08 01:11 | 45.44297 | 13.08269 | 34081 ft | 440 kts | 313° |
| 2026-05-08 01:11 | 45.49043 | 13.02727 | 34074 ft | 441 kts | 313° |
| 2026-05-08 01:12 | 45.53767 | 12.97215 | 34064 ft | 441 kts | 313° |
| 2026-05-08 01:12 | 45.58508 | 12.91650 | 34051 ft | 441 kts | 313° |
| 2026-05-08 01:13 | 45.63238 | 12.86073 | 34040 ft | 442 kts | 313° |
| 2026-05-08 01:13 | 45.67969 | 12.80482 | 34034 ft | 443 kts | 313° |
| 2026-05-08 01:14 | 45.72717 | 12.74853 | 34032 ft | 443 kts | 313° |
| 2026-05-08 01:14 | 45.77457 | 12.69224 | 34031 ft | 444 kts | 313° |
| 2026-05-08 01:15 | 45.82200 | 12.63574 | 34031 ft | 444 kts | 314° |
| 2026-05-08 01:15 | 45.86925 | 12.57936 | 34031 ft | 444 kts | 314° |
| 2026-05-08 01:16 | 45.91653 | 12.52278 | 34031 ft | 444 kts | 314° |
| 2026-05-08 01:16 | 45.96400 | 12.46587 | 34031 ft | 445 kts | 314° |
| 2026-05-08 01:17 | 46.01139 | 12.40891 | 34031 ft | 444 kts | 314° |
| 2026-05-08 01:17 | 46.05862 | 12.35202 | 34031 ft | 444 kts | 314° |
| 2026-05-08 01:18 | 46.10580 | 12.29506 | 34032 ft | 444 kts | 313° |
| 2026-05-08 01:18 | 46.15298 | 12.23799 | 34043 ft | 444 kts | 313° |
| 2026-05-08 01:19 | 46.20033 | 12.18055 | 34068 ft | 444 kts | 313° |
| 2026-05-08 01:19 | 46.24745 | 12.12327 | 34096 ft | 444 kts | 313° |
| 2026-05-08 01:20 | 46.29462 | 12.06579 | 34121 ft | 444 kts | 313° |
| 2026-05-08 01:20 | 46.34178 | 12.00818 | 34133 ft | 443 kts | 313° |
| 2026-05-08 01:21 | 46.38876 | 11.95064 | 34135 ft | 444 kts | 313° |
| 2026-05-08 01:21 | 46.43594 | 11.89274 | 34127 ft | 444 kts | 313° |
| 2026-05-08 01:22 | 46.48288 | 11.83501 | 34113 ft | 445 kts | 313° |
| 2026-05-08 01:22 | 46.52998 | 11.77693 | 34095 ft | 445 kts | 314° |
| 2026-05-08 01:23 | 46.57707 | 11.71872 | 34077 ft | 445 kts | 314° |
| 2026-05-08 01:23 | 46.62426 | 11.66026 | 34066 ft | 445 kts | 314° |
| 2026-05-08 01:24 | 46.67131 | 11.60184 | 34062 ft | 445 kts | 314° |
| 2026-05-08 01:24 | 46.71846 | 11.54315 | 34059 ft | 445 kts | 314° |
| 2026-05-08 01:25 | 46.76518 | 11.48488 | 34061 ft | 446 kts | 314° |
| 2026-05-08 01:25 | 46.81174 | 11.42665 | 34068 ft | 445 kts | 314° |
| 2026-05-08 01:26 | 46.85884 | 11.36762 | 34079 ft | 446 kts | 314° |
| 2026-05-08 01:26 | 46.90587 | 11.30853 | 34095 ft | 445 kts | 314° |
| 2026-05-08 01:27 | 46.95278 | 11.24946 | 34105 ft | 445 kts | 314° |
| 2026-05-08 01:27 | 46.99957 | 11.19042 | 34109 ft | 445 kts | 314° |
| 2026-05-08 01:28 | 47.04651 | 11.13104 | 34112 ft | 445 kts | 314° |
| 2026-05-08 01:28 | 47.09340 | 11.07164 | 34112 ft | 445 kts | 314° |
| 2026-05-08 01:29 | 47.14126 | 11.01411 | 34112 ft | 447 kts | 316° |
| 2026-05-08 01:29 | 47.18960 | 10.95669 | 34110 ft | 447 kts | 316° |
| 2026-05-08 01:30 | 47.23788 | 10.89896 | 34106 ft | 447 kts | 316° |
| 2026-05-08 01:30 | 47.28579 | 10.84141 | 34100 ft | 447 kts | 316° |
| 2026-05-08 01:31 | 47.33552 | 10.78588 | 34094 ft | 450 kts | 320° |
| 2026-05-08 01:31 | 47.38629 | 10.73294 | 34089 ft | 450 kts | 320° |
| 2026-05-08 01:32 | 47.43719 | 10.67939 | 34087 ft | 450 kts | 320° |
| 2026-05-08 01:32 | 47.48798 | 10.62554 | 34083 ft | 449 kts | 319° |
| 2026-05-08 01:33 | 47.53841 | 10.57183 | 34070 ft | 449 kts | 320° |
| 2026-05-08 01:33 | 47.58913 | 10.51767 | 34063 ft | 449 kts | 320° |
| 2026-05-08 01:34 | 47.63967 | 10.46354 | 34063 ft | 449 kts | 320° |
| 2026-05-08 01:34 | 47.68582 | 10.40221 | 34066 ft | 441 kts | 306° |
| 2026-05-08 01:35 | 47.71867 | 10.32691 | 34074 ft | 433 kts | 292° |
| 2026-05-08 01:35 | 47.73687 | 10.24454 | 34079 ft | 428 kts | 279° |
| 2026-05-08 01:36 | 47.74085 | 10.15620 | 34085 ft | 427 kts | 268° |
| 2026-05-08 01:36 | 47.73912 | 10.06855 | 34084 ft | 427 kts | 267° |
| 2026-05-08 01:37 | 47.73703 | 9.97993 | 34083 ft | 427 kts | 267° |
| 2026-05-08 01:37 | 47.73483 | 9.89166 | 33932 ft | 428 kts | 267° |
| 2026-05-08 01:37 | 47.73370 | 9.84770 | 33681 ft | 428 kts | 267° |
| 2026-05-08 01:38 | 47.73256 | 9.80354 | 33431 ft | 429 kts | 267° |
| 2026-05-08 01:38 | 47.73140 | 9.75907 | 33179 ft | 430 kts | 267° |
| 2026-05-08 01:38 | 47.73021 | 9.71435 | 32927 ft | 431 kts | 267° |
| 2026-05-08 01:38 | 47.72901 | 9.67024 | 32679 ft | 433 kts | 267° |
| 2026-05-08 01:39 | 47.72777 | 9.62551 | 32428 ft | 433 kts | 267° |
| 2026-05-08 01:39 | 47.72651 | 9.58090 | 32178 ft | 434 kts | 267° |
| 2026-05-08 01:39 | 47.72523 | 9.53623 | 31848 ft | 432 kts | 267° |
| 2026-05-08 01:39 | 47.72396 | 9.49223 | 31219 ft | 424 kts | 267° |
| 2026-05-08 01:40 | 47.72154 | 9.44865 | 30142 ft | 423 kts | 258° |
| 2026-05-08 01:40 | 47.71086 | 9.40842 | 28695 ft | 432 kts | 239° |
| 2026-05-08 01:40 | 47.69248 | 9.37317 | 27496 ft | 440 kts | 232° |
| 2026-05-08 01:40 | 47.67323 | 9.33857 | 26858 ft | 429 kts | 232° |
| 2026-05-08 01:41 | 47.65446 | 9.30452 | 26282 ft | 420 kts | 232° |
| 2026-05-08 01:41 | 47.63620 | 9.27128 | 25747 ft | 410 kts | 232° |
| 2026-05-08 01:41 | 47.61858 | 9.23921 | 25139 ft | 392 kts | 232° |
| 2026-05-08 01:41 | 47.60186 | 9.20883 | 24351 ft | 381 kts | 232° |
| 2026-05-08 01:42 | 47.58653 | 9.17741 | 23512 ft | 371 kts | 237° |
| 2026-05-08 01:42 | 47.57297 | 9.14572 | 22642 ft | 364 kts | 238° |
| 2026-05-08 01:42 | 47.55944 | 9.11470 | 21769 ft | 358 kts | 239° |
| 2026-05-08 01:42 | 47.54997 | 9.08135 | 20871 ft | 352 kts | 258° |
| 2026-05-08 01:43 | 47.54932 | 9.04537 | 19983 ft | 349 kts | 279° |
| 2026-05-08 01:43 | 47.55755 | 9.01206 | 19104 ft | 348 kts | 300° |
| 2026-05-08 01:43 | 47.57326 | 8.98586 | 18239 ft | 350 kts | 320° |
| 2026-05-08 01:43 | 47.59478 | 8.96965 | 17362 ft | 352 kts | 342° |
| 2026-05-08 01:44 | 47.61917 | 8.96621 | 16478 ft | 355 kts | 4° |
| 2026-05-08 01:44 | 47.64252 | 8.97609 | 15608 ft | 357 kts | 26° |
| 2026-05-08 01:44 | 47.66222 | 8.99824 | 14725 ft | 357 kts | 48° |
| 2026-05-08 01:44 | 47.67504 | 9.02938 | 13843 ft | 354 kts | 70° |
| 2026-05-08 01:45 | 47.67852 | 9.06469 | 12958 ft | 349 kts | 97° |
| 2026-05-08 01:45 | 47.67212 | 9.09888 | 12085 ft | 342 kts | 117° |
| 2026-05-08 01:45 | 47.65895 | 9.12700 | 11208 ft | 333 kts | 139° |
| 2026-05-08 01:45 | 47.64074 | 9.14728 | 10343 ft | 327 kts | 148° |
| 2026-05-08 01:46 | 47.62147 | 9.16435 | 9458 ft | 322 kts | 158° |
| 2026-05-08 01:46 | 47.60027 | 9.16980 | 8580 ft | 316 kts | 186° |
| 2026-05-08 01:46 | 47.58019 | 9.15914 | 7702 ft | 310 kts | 216° |
| 2026-05-08 01:46 | 47.56614 | 9.13548 | 6830 ft | 307 kts | 238° |
| 2026-05-08 01:47 | 47.55551 | 9.10827 | 5973 ft | 304 kts | 240° |
| 2026-05-08 01:47 | 47.54527 | 9.08152 | 5373 ft | 293 kts | 239° |
| 2026-05-08 01:47 | 47.53523 | 9.05625 | 5070 ft | 278 kts | 239° |
| 2026-05-08 01:48 | 47.51574 | 9.00910 | 4886 ft | 266 kts | 238° |
| 2026-05-08 01:48 | 47.50600 | 8.98602 | 4761 ft | 263 kts | 238° |
| 2026-05-08 01:48 | 47.49654 | 8.96365 | 4632 ft | 253 kts | 237° |
| 2026-05-08 01:48 | 47.48738 | 8.94204 | 4503 ft | 243 kts | 237° |
| 2026-05-08 01:49 | 47.47889 | 8.92086 | 4371 ft | 233 kts | 240° |
| 2026-05-08 01:49 | 47.47162 | 8.89999 | 4238 ft | 224 kts | 244° |
| 2026-05-08 01:49 | 47.46544 | 8.87934 | 4108 ft | 215 kts | 248° |
| 2026-05-08 01:49 | 47.46031 | 8.85904 | 4004 ft | 204 kts | 251° |
| 2026-05-08 01:50 | 47.45626 | 8.83955 | 3997 ft | 199 kts | 255° |
| 2026-05-08 01:50 | 47.45294 | 8.81967 | 4066 ft | 195 kts | 257° |
| 2026-05-08 01:50 | 47.45041 | 8.80050 | 4042 ft | 189 kts | 260° |
| 2026-05-08 01:50 | 47.44852 | 8.78120 | 4014 ft | 189 kts | 263° |
| 2026-05-08 01:51 | 47.44653 | 8.76199 | 4005 ft | 190 kts | 262° |
| 2026-05-08 01:51 | 47.44544 | 8.74269 | 3880 ft | 184 kts | 269° |
| 2026-05-08 01:51 | 47.44576 | 8.72456 | 3625 ft | 172 kts | 274° |
| 2026-05-08 01:51 | 47.44685 | 8.70746 | 3395 ft | 160 kts | 276° |
| 2026-05-08 01:52 | 47.44807 | 8.69140 | 3154 ft | 155 kts | 276° |
| 2026-05-08 01:52 | 47.44921 | 8.67576 | 2932 ft | 153 kts | 276° |
| 2026-05-08 01:52 | 47.45031 | 8.66011 | 2709 ft | 152 kts | 276° |
| 2026-05-08 01:52 | 47.45139 | 8.64445 | 2485 ft | 152 kts | 276° |
| 2026-05-08 01:53 | 47.45247 | 8.62890 | 2262 ft | 151 kts | 276° |
| 2026-05-08 01:53 | 47.45355 | 8.61349 | 2041 ft | 151 kts | 276° |
| 2026-05-08 01:53 | 47.45463 | 8.59808 | 1821 ft | 150 kts | 277° |
| 2026-05-08 01:53 | 47.45570 | 8.58290 | 1604 ft | 149 kts | 277° |
| 2026-05-08 01:54 | 47.45677 | 8.56769 | 1401 ft | 148 kts | 277° |
| 2026-05-08 01:54 | 47.45772 | 8.55438 | 1383 ft | 91 kts | 276° |
| 2026-05-08 01:54 | 47.45811 | 8.54886 | 1383 ft | 27 kts | 263° |
| 2026-05-08 01:54 | 47.45734 | 8.54860 | 1383 ft | 10 kts | 149° |
| 2026-05-08 01:55 | 47.45558 | 8.54978 | 1386 ft | 30 kts | 154° |
| 2026-05-08 01:55 | 47.45415 | 8.55183 | 1387 ft | 27 kts | 118° |
| 2026-05-08 01:55 | 47.45367 | 8.55320 | 1388 ft | 5 kts | 117° |
| 2026-05-08 01:55 | 47.45312 | 8.55469 | 1383 ft | 23 kts | 114° |
| 2026-05-08 01:56 | 47.45369 | 8.55514 | 1383 ft | 13 kts | 335° |
| 2026-05-08 01:56 | 47.45483 | 8.55438 | 1383 ft | 18 kts | 341° |
| 2026-05-08 01:56 | 47.45522 | 8.55558 | 1383 ft | 16 kts | 97° |
| 2026-05-08 01:56 | 47.45510 | 8.55721 | 1383 ft | 15 kts | 96° |
| 2026-05-08 01:57 | 47.45501 | 8.55794 | 1383 ft | 1 kts | 145° |
| 2026-05-08 01:57 | 47.45471 | 8.55801 | 1383 ft | 6 kts | 180° |
| 2026-05-08 01:57 | 47.45432 | 8.55796 | 1383 ft | 1 kts | 186° |
| 2026-05-08 01:57 | 47.45431 | 8.55796 | 1383 ft | 0 kts | 186° |